Wetterdaten: Woche 21.05.18 - 27.05.18 (KW21)
Datum Zeit Temp. A. Pool Temp. Feuchte A. Luftdruck Regen Wind Richtung Sonnenschein ET UV Solar Taupunkt Windchill Windben Empfang
21.05.2018 00:00 12,5 C 17,8 C 82 % 1017,4 hPa 0,0 l/m 8,7 km/h (2 Bft) O 0,00 h 0,000 mm 0,0 UV-I 0 W/m 9,6 C 11,1 C 12,2 km/h (2 Bft) 97,33 %
21.05.2018 01:00 12,7 C 17,8 C 81 % 1017,1 hPa 0,0 l/m 11,8 km/h (2 Bft) O 0,00 h 0,025 mm 0,0 UV-I 0 W/m 9,5 C 9,9 C 15,6 km/h (3 Bft) 98,34 %
21.05.2018 02:00 13,1 C 17,5 C 77 % 1016,5 hPa 0,0 l/m 14,1 km/h (3 Bft) O-NO 0,00 h 0,026 mm 0,0 UV-I 0 W/m 9,1 C 9,2 C 18,7 km/h (3 Bft) 99,03 %
21.05.2018 03:00 13,0 C 17,2 C 78 % 1015,9 hPa 0,0 l/m 16,1 km/h (3 Bft) O-NO 0,00 h 0,051 mm 0,0 UV-I 0 W/m 9,3 C 8,4 C 21,7 km/h (4 Bft) 97,78 %
21.05.2018 04:00 12,7 C 17,2 C 80 % 1015,7 hPa 0,0 l/m 17,8 km/h (3 Bft) O 0,00 h 0,050 mm 0,0 UV-I 0 W/m 9,3 C 7,5 C 24,2 km/h (4 Bft) 97,57 %
21.05.2018 05:00 12,3 C 16,8 C 81 % 1015,6 hPa 0,0 l/m 18,0 km/h (3 Bft) O-NO 0,50 h 0,051 mm 0,0 UV-I 21 W/m 9,2 C 7,0 C 23,7 km/h (4 Bft) 97,89 %
21.05.2018 06:00 12,6 C 16,7 C 80 % 1015,7 hPa 0,0 l/m 15,4 km/h (3 Bft) O-NO 1,00 h 0,051 mm 0,0 UV-I 128 W/m 9,2 C 8,1 C 20,7 km/h (4 Bft) 99,16 %
21.05.2018 07:00 13,9 C 16,7 C 76 % 1015,5 hPa 0,0 l/m 18,3 km/h (3 Bft) O 1,00 h 0,102 mm 0,6 UV-I 283 W/m 9,7 C 8,9 C 24,2 km/h (4 Bft) 96,33 %
21.05.2018 08:00 15,5 C 16,8 C 71 % 1015,2 hPa 0,0 l/m 19,1 km/h (3 Bft) O 1,00 h 0,203 mm 1,1 UV-I 449 W/m 10,3 C 10,7 C 25,0 km/h (4 Bft) 98,69 %
21.05.2018 09:00 17,6 C 17,2 C 66 % 1014,8 hPa 0,0 l/m 17,6 km/h (3 Bft) O-NO 1,00 h 0,305 mm 2,1 UV-I 604 W/m 11,1 C 13,6 C 23,2 km/h (4 Bft) 98,35 %
21.05.2018 10:00 19,6 C 17,2 C 60 % 1014,3 hPa 0,0 l/m 20,6 km/h (4 Bft) O-NO 1,00 h 0,406 mm 3,1 UV-I 725 W/m 11,7 C 15,6 C 26,8 km/h (4 Bft) 98,06 %
21.05.2018 11:00 21,1 C 17,8 C 56 % 1014,0 hPa 0,0 l/m 21,9 km/h (4 Bft) O 1,00 h 0,533 mm 4,1 UV-I 812 W/m 11,9 C 17,4 C 29,1 km/h (5 Bft) 96,46 %
21.05.2018 12:00 22,2 C 17,9 C 52 % 1013,4 hPa 0,0 l/m 21,7 km/h (4 Bft) O 1,00 h 0,610 mm 4,7 UV-I 858 W/m 12,0 C 18,8 C 29,1 km/h (5 Bft) 98,25 %
21.05.2018 13:00 22,7 C 18,3 C 50 % 1012,8 hPa 0,0 l/m 23,3 km/h (4 Bft) O 1,00 h 0,660 mm 4,8 UV-I 871 W/m 11,6 C 19,3 C 31,1 km/h (5 Bft) 99,28 %
21.05.2018 14:00 22,7 C 18,7 C 48 % 1012,3 hPa 0,0 l/m 22,3 km/h (4 Bft) O 0,75 h 0,686 mm 3,8 UV-I 674 W/m 11,3 C 19,5 C 29,5 km/h (5 Bft) 98,24 %
21.05.2018 15:00 22,8 C 18,9 C 48 % 1011,8 hPa 0,0 l/m 23,6 km/h (4 Bft) O 0,82 h 0,584 mm 3,1 UV-I 631 W/m 11,3 C 19,4 C 31,6 km/h (5 Bft) 97,57 %
21.05.2018 16:00 22,4 C 18,9 C 51 % 1011,5 hPa 0,0 l/m 26,1 km/h (4 Bft) O 1,00 h 0,559 mm 2,1 UV-I 561 W/m 11,6 C 18,6 C 35,2 km/h (5 Bft) 96,93 %
21.05.2018 17:00 21,3 C 18,9 C 49 % 1011,2 hPa 0,0 l/m 25,6 km/h (4 Bft) O-NO 1,00 h 0,508 mm 1,2 UV-I 432 W/m 10,3 C 17,1 C 34,1 km/h (5 Bft) 99,32 %
21.05.2018 18:00 20,9 C 18,9 C 51 % 1010,9 hPa 0,0 l/m 20,4 km/h (4 Bft) O 1,00 h 0,432 mm 0,6 UV-I 294 W/m 10,5 C 17,3 C 27,2 km/h (4 Bft) 98,07 %
21.05.2018 19:00 19,8 C 18,9 C 55 % 1010,9 hPa 0,0 l/m 18,5 km/h (3 Bft) O-NO 1,00 h 0,305 mm 0,0 UV-I 122 W/m 10,5 C 16,3 C 24,3 km/h (4 Bft) 99,17 %
21.05.2018 20:00 18,2 C 18,9 C 61 % 1011,0 hPa 0,0 l/m 13,5 km/h (3 Bft) O-NO 0,53 h 0,178 mm 0,0 UV-I 25 W/m 10,7 C 15,6 C 18,2 km/h (3 Bft) 95,79 %
21.05.2018 21:00 16,8 C 18,9 C 67 % 1011,1 hPa 0,0 l/m 9,9 km/h (2 Bft) O-NO 0,00 h 0,076 mm 0,0 UV-I 0 W/m 10,6 C 15,2 C 15,1 km/h (3 Bft) 98,21 %
21.05.2018 22:00 16,0 C 18,7 C 69 % 1011,0 hPa 0,0 l/m 10,2 km/h (2 Bft) O-NO 0,00 h 0,051 mm 0,0 UV-I 0 W/m 10,3 C 14,2 C 15,2 km/h (3 Bft) 98,03 %
21.05.2018 23:00 15,0 C 18,3 C 73 % 1010,9 hPa 0,0 l/m 8,0 km/h (2 Bft) O-NO 0,00 h 0,050 mm 0,0 UV-I 0 W/m 10,2 C 14,1 C 11,8 km/h (2 Bft) 99,23 %
22.05.2018 00:00 14,0 C 18,3 C 78 % 1010,8 hPa 0,0 l/m 7,0 km/h (2 Bft) O 0,00 h 0,000 mm 0,0 UV-I 0 W/m 10,2 C 13,4 C 9,8 km/h (2 Bft) 95,70 %
22.05.2018 01:00 13,5 C 18,3 C 80 % 1010,5 hPa 0,0 l/m 5,5 km/h (1 Bft) O-NO 0,00 h 0,025 mm 0,0 UV-I 0 W/m 10,1 C 13,1 C 7,9 km/h (2 Bft) 98,97 %
22.05.2018 02:00 12,4 C 18,3 C 84 % 1010,2 hPa 0,0 l/m 2,3 km/h (1 Bft) O 0,00 h 0,026 mm 0,0 UV-I 0 W/m 9,8 C 12,4 C 3,3 km/h (1 Bft) 98,03 %
22.05.2018 03:00 11,1 C 18,3 C 88 % 1010,3 hPa 0,0 l/m 1,0 km/h (0 Bft) SW 0,00 h 0,000 mm 0,0 UV-I 0 W/m 9,2 C 11,1 C 1,4 km/h (1 Bft) 99,49 %
22.05.2018 04:00 10,2 C 17,8 C 90 % 1010,3 hPa 0,0 l/m 1,5 km/h (1 Bft) SW 0,00 h 0,000 mm 0,0 UV-I 0 W/m 8,6 C 10,2 C 3,3 km/h (1 Bft) 98,76 %
22.05.2018 05:00 9,7 C 17,8 C 92 % 1010,4 hPa 0,0 l/m 0,6 km/h (0 Bft) SW 0,47 h 0,000 mm 0,0 UV-I 29 W/m 8,5 C 9,7 C 1,3 km/h (1 Bft) 98,93 %
22.05.2018 06:00 10,8 C 17,8 C 91 % 1010,8 hPa 0,0 l/m 0,3 km/h (0 Bft) O-SO 1,00 h 0,025 mm 0,0 UV-I 129 W/m 9,4 C 10,8 C 0,5 km/h (0 Bft) 97,06 %
22.05.2018 07:00 13,8 C 17,8 C 83 % 1011,0 hPa 0,0 l/m 7,2 km/h (2 Bft) O-NO 1,00 h 0,051 mm 0,6 UV-I 284 W/m 11,0 C 12,9 C 10,3 km/h (2 Bft) 98,49 %
22.05.2018 08:00 15,8 C 17,9 C 77 % 1011,2 hPa 0,0 l/m 7,9 km/h (2 Bft) O-NO 1,00 h 0,152 mm 1,1 UV-I 444 W/m 11,7 C 14,9 C 11,3 km/h (2 Bft) 98,44 %
22.05.2018 09:00 17,8 C 18,3 C 71 % 1011,2 hPa 0,0 l/m 6,2 km/h (2 Bft) O-NO 1,00 h 0,254 mm 2,1 UV-I 587 W/m 12,4 C 17,5 C 9,2 km/h (2 Bft) 98,03 %
22.05.2018 10:00 20,0 C 18,3 C 65 % 1011,2 hPa 0,0 l/m 7,1 km/h (2 Bft) O 1,00 h 0,356 mm 3,2 UV-I 714 W/m 13,1 C 19,5 C 10,9 km/h (2 Bft) 96,93 %
22.05.2018 11:00 22,0 C 18,4 C 57 % 1011,0 hPa 0,0 l/m 8,9 km/h (2 Bft) O-NO 1,00 h 0,457 mm 4,3 UV-I 844 W/m 13,1 C 21,2 C 12,9 km/h (3 Bft) 99,82 %
22.05.2018 12:00 23,5 C 18,9 C 47 % 1010,7 hPa 0,0 l/m 11,5 km/h (2 Bft) O-NO 1,00 h 0,559 mm 4,6 UV-I 829 W/m 11,7 C 22,3 C 15,8 km/h (3 Bft) 97,88 %
22.05.2018 13:00 24,6 C 19,4 C 44 % 1010,3 hPa 0,0 l/m 11,3 km/h (2 Bft) O-NO 0,98 h 0,610 mm 4,3 UV-I 775 W/m 11,4 C 23,5 C 16,0 km/h (3 Bft) 98,41 %
22.05.2018 14:00 24,9 C 19,4 C 45 % 1009,9 hPa 0,0 l/m 10,7 km/h (2 Bft) O-NO 0,73 h 0,584 mm 3,3 UV-I 597 W/m 12,3 C 23,9 C 15,3 km/h (3 Bft) 96,32 %
22.05.2018 15:00 24,9 C 19,9 C 45 % 1009,5 hPa 0,0 l/m 13,4 km/h (3 Bft) O 0,73 h 0,457 mm 2,3 UV-I 460 W/m 12,1 C 23,5 C 18,1 km/h (3 Bft) 99,33 %
22.05.2018 16:00 22,9 C 20,0 C 52 % 1009,7 hPa 0,0 l/m 16,9 km/h (3 Bft) SO 0,22 h 0,406 mm 1,2 UV-I 176 W/m 12,3 C 20,7 C 24,1 km/h (4 Bft) 98,12 %
22.05.2018 17:00 19,1 C 20,0 C 69 % 1010,2 hPa 0,0 l/m 9,2 km/h (2 Bft) SO 0,00 h 0,229 mm 0,0 UV-I 78 W/m 13,4 C 18,0 C 13,1 km/h (3 Bft) 98,54 %
22.05.2018 18:00 19,1 C 20,0 C 74 % 1009,8 hPa 0,0 l/m 6,7 km/h (2 Bft) SO 0,00 h 0,076 mm 0,0 UV-I 62 W/m 14,2 C 18,6 C 9,2 km/h (2 Bft) 97,03 %
22.05.2018 19:00 18,3 C 19,4 C 78 % 1010,2 hPa 0,0 l/m 5,6 km/h (1 Bft) S 0,00 h 0,051 mm 0,0 UV-I 38 W/m 14,4 C 17,9 C 7,6 km/h (2 Bft) 99,43 %
22.05.2018 20:00 16,8 C 19,4 C 79 % 1010,8 hPa 0,0 l/m 6,5 km/h (2 Bft) O-NO 0,00 h 0,051 mm 0,0 UV-I 9 W/m 13,2 C 16,4 C 8,9 km/h (2 Bft) 98,09 %
22.05.2018 21:00 16,0 C 19,4 C 79 % 1011,2 hPa 0,0 l/m 3,5 km/h (1 Bft) NO 0,00 h 0,025 mm 0,0 UV-I 0 W/m 12,3 C 16,0 C 4,7 km/h (1 Bft) 98,10 %
22.05.2018 22:00 14,5 C 19,4 C 84 % 1011,4 hPa 0,0 l/m 1,6 km/h (1 Bft) W-SW 0,00 h 0,026 mm 0,0 UV-I 0 W/m 11,8 C 14,5 C 2,2 km/h (1 Bft) 96,98 %
22.05.2018 23:00 13,6 C 19,4 C 86 % 1011,5 hPa 0,0 l/m 2,8 km/h (1 Bft) S-SO 0,00 h 0,000 mm 0,0 UV-I 0 W/m 11,3 C 13,6 C 3,9 km/h (1 Bft) 98,90 %
23.05.2018 00:00 12,7 C 19,3 C 90 % 1011,9 hPa 0,0 l/m 2,6 km/h (1 Bft) SW 0,00 h 0,000 mm 0,0 UV-I 0 W/m 11,0 C 12,7 C 3,5 km/h (1 Bft) 96,59 %
23.05.2018 01:00 12,2 C 18,9 C 92 % 1012,1 hPa 0,0 l/m 2,5 km/h (1 Bft) SW 0,00 h 0,000 mm 0,0 UV-I 0 W/m 11,0 C 12,2 C 3,4 km/h (1 Bft) 97,38 %
23.05.2018 02:00 12,0 C 18,9 C 94 % 1012,1 hPa 0,0 l/m 1,3 km/h (1 Bft) SW 0,00 h 0,000 mm 0,0 UV-I 0 W/m 11,1 C 12,0 C 2,1 km/h (1 Bft) 97,71 %
23.05.2018 03:00 11,0 C 18,9 C 94 % 1012,2 hPa 0,0 l/m 0,9 km/h (0 Bft) SW 0,00 h 0,000 mm 0,0 UV-I 0 W/m 10,0 C 11,0 C 1,5 km/h (1 Bft) 98,95 %
23.05.2018 04:00 10,4 C 18,9 C 94 % 1012,5 hPa 0,0 l/m 1,1 km/h (1 Bft) SW 0,00 h 0,000 mm 0,0 UV-I 0 W/m 9,5 C 10,4 C 1,7 km/h (1 Bft) 96,55 %
23.05.2018 05:00 10,7 C 18,9 C 94 % 1013,0 hPa 0,0 l/m 3,4 km/h (1 Bft) SW 0,53 h 0,000 mm 0,0 UV-I 29 W/m 9,8 C 10,7 C 4,8 km/h (1 Bft) 98,81 %
23.05.2018 06:00 12,0 C 18,9 C 93 % 1013,6 hPa 0,0 l/m 1,7 km/h (1 Bft) SW 0,82 h 0,025 mm 0,0 UV-I 110 W/m 10,8 C 12,0 C 2,7 km/h (1 Bft) 98,39 %
23.05.2018 07:00 13,9 C 18,9 C 89 % 1014,4 hPa 0,0 l/m 4,6 km/h (1 Bft) SW 0,87 h 0,051 mm 0,6 UV-I 259 W/m 12,1 C 13,9 C 6,6 km/h (2 Bft) 96,39 %
23.05.2018 08:00 16,5 C 18,9 C 82 % 1014,9 hPa 0,0 l/m 4,3 km/h (1 Bft) SW 1,00 h 0,153 mm 1,2 UV-I 456 W/m 13,5 C 16,5 C 6,3 km/h (2 Bft) 98,97 %
23.05.2018 09:00 18,9 C 18,9 C 72 % 1015,0 hPa 0,0 l/m 3,7 km/h (1 Bft) W 1,00 h 0,254 mm 2,2 UV-I 587 W/m 13,7 C 18,8 C 6,0 km/h (2 Bft) 98,26 %
23.05.2018 10:00 20,6 C 19,0 C 65 % 1015,1 hPa 0,0 l/m 3,3 km/h (1 Bft) W-SW 1,00 h 0,355 mm 3,3 UV-I 710 W/m 13,7 C 20,6 C 5,2 km/h (1 Bft) 96,29 %
23.05.2018 11:00 22,0 C 19,4 C 59 % 1015,2 hPa 0,0 l/m 4,2 km/h (1 Bft) N 1,00 h 0,432 mm 4,3 UV-I 800 W/m 13,6 C 22,0 C 6,8 km/h (2 Bft) 97,51 %
23.05.2018 12:00 23,6 C 19,9 C 54 % 1014,9 hPa 0,0 l/m 6,4 km/h (2 Bft) O-NO 1,00 h 0,508 mm 4,9 UV-I 852 W/m 13,8 C 23,3 C 9,7 km/h (2 Bft) 98,41 %
23.05.2018 13:00 24,6 C 20,3 C 48 % 1014,7 hPa 0,0 l/m 7,1 km/h (2 Bft) NO 1,00 h 0,559 mm 4,9 UV-I 854 W/m 12,8 C 24,2 C 10,9 km/h (2 Bft) 98,83 %
23.05.2018 14:00 25,1 C 20,6 C 47 % 1014,4 hPa 0,0 l/m 7,9 km/h (2 Bft) O-NO 1,00 h 0,584 mm 4,0 UV-I 722 W/m 12,8 C 24,6 C 12,0 km/h (2 Bft) 96,19 %
23.05.2018 15:00 25,7 C 21,0 C 45 % 1013,8 hPa 0,0 l/m 9,5 km/h (2 Bft) O-NO 1,00 h 0,508 mm 3,2 UV-I 665 W/m 12,8 C 25,1 C 13,5 km/h (3 Bft) 98,42 %
23.05.2018 16:00 25,6 C 21,1 C 48 % 1013,3 hPa 0,0 l/m 10,9 km/h (2 Bft) O-NO 1,00 h 0,508 mm 1,9 UV-I 477 W/m 13,6 C 24,7 C 14,8 km/h (3 Bft) 98,33 %
23.05.2018 17:00 24,4 C 21,1 C 51 % 1013,5 hPa 0,0 l/m 13,4 km/h (3 Bft) O 0,27 h 0,406 mm 0,9 UV-I 169 W/m 13,6 C 22,9 C 18,6 km/h (3 Bft) 98,38 %
23.05.2018 18:00 22,4 C 21,1 C 61 % 1013,5 hPa 0,0 l/m 8,2 km/h (2 Bft) S-SO 0,00 h 0,204 mm 0,0 UV-I 84 W/m 14,6 C 21,7 C 12,1 km/h (2 Bft) 95,62 %
23.05.2018 19:00 21,5 C 21,1 C 62 % 1014,0 hPa 0,0 l/m 3,2 km/h (1 Bft) SO 0,00 h 0,101 mm 0,0 UV-I 44 W/m 13,8 C 21,5 C 4,4 km/h (1 Bft) 98,62 %
23.05.2018 20:00 19,5 C 21,1 C 71 % 1014,4 hPa 0,0 l/m 0,8 km/h (0 Bft) SO 0,05 h 0,051 mm 0,0 UV-I 12 W/m 14,0 C 19,5 C 1,5 km/h (1 Bft) 98,29 %
23.05.2018 21:00 17,9 C 21,1 C 76 % 1015,0 hPa 0,0 l/m 0,5 km/h (0 Bft) S-SO 0,00 h 0,025 mm 0,0 UV-I 0 W/m 13,5 C 17,9 C 0,9 km/h (0 Bft) 99,07 %
23.05.2018 22:00 17,1 C 21,0 C 79 % 1015,2 hPa 0,0 l/m 2,6 km/h (1 Bft) S-SW 0,00 h 0,000 mm 0,0 UV-I 0 W/m 13,4 C 17,1 C 3,8 km/h (1 Bft) 96,18 %
23.05.2018 23:00 17,0 C 20,6 C 84 % 1015,0 hPa 0,0 l/m 2,4 km/h (1 Bft) SW 0,00 h 0,026 mm 0,0 UV-I 0 W/m 14,2 C 17,0 C 3,5 km/h (1 Bft) 98,61 %
24.05.2018 00:00 16,3 C 20,6 C 88 % 1015,0 hPa 0,0 l/m 1,1 km/h (0 Bft) SW 0,00 h 0,000 mm 0,0 UV-I 0 W/m 14,2 C 16,3 C 1,6 km/h (1 Bft) 98,25 %
24.05.2018 01:00 15,7 C 20,6 C 90 % 1014,9 hPa 0,0 l/m 3,2 km/h (1 Bft) SW 0,00 h 0,000 mm 0,0 UV-I 0 W/m 14,1 C 15,7 C 4,7 km/h (1 Bft) 97,70 %
24.05.2018 02:00 14,7 C 20,6 C 92 % 1014,9 hPa 0,0 l/m 1,6 km/h (1 Bft) SW 0,00 h 0,000 mm 0,0 UV-I 0 W/m 13,5 C 14,7 C 2,5 km/h (1 Bft) 97,12 %
24.05.2018 03:00 14,7 C 20,6 C 92 % 1015,2 hPa 0,0 l/m 0,4 km/h (0 Bft) SW 0,00 h 0,000 mm 0,0 UV-I 0 W/m 13,4 C 14,7 C 0,9 km/h (0 Bft) 98,78 %
24.05.2018 04:00 14,7 C 20,6 C 92 % 1015,2 hPa 0,0 l/m 1,4 km/h (1 Bft) O-NO 0,00 h 0,000 mm 0,0 UV-I 0 W/m 13,5 C 14,7 C 2,1 km/h (1 Bft) 97,77 %
24.05.2018 05:00 14,8 C 20,3 C 92 % 1015,2 hPa 0,0 l/m 2,8 km/h (1 Bft) SW 0,03 h 0,000 mm 0,0 UV-I 14 W/m 13,5 C 14,8 C 3,9 km/h (1 Bft) 96,78 %
24.05.2018 06:00 14,9 C 20,0 C 92 % 1015,4 hPa 0,0 l/m 3,6 km/h (1 Bft) SW 0,03 h 0,000 mm 0,0 UV-I 75 W/m 13,6 C 14,8 C 5,2 km/h (1 Bft) 98,61 %
24.05.2018 07:00 15,9 C 20,0 C 90 % 1015,5 hPa 0,0 l/m 0,8 km/h (0 Bft) SW 0,00 h 0,051 mm 0,0 UV-I 119 W/m 14,3 C 15,9 C 1,5 km/h (1 Bft) 98,42 %
24.05.2018 08:00 17,0 C 20,0 C 88 % 1015,9 hPa 0,0 l/m 2,4 km/h (1 Bft) W-SW 0,00 h 0,076 mm 0,6 UV-I 162 W/m 15,0 C 17,0 C 3,4 km/h (1 Bft) 97,84 %
24.05.2018 09:00 17,6 C 20,0 C 84 % 1016,3 hPa 0,0 l/m 4,4 km/h (1 Bft) W-SW 0,00 h 0,102 mm 1,0 UV-I 258 W/m 14,8 C 17,6 C 6,4 km/h (2 Bft) 96,61 %
24.05.2018 10:00 18,7 C 20,5 C 80 % 1016,5 hPa 0,0 l/m 2,7 km/h (1 Bft) S-SW 0,00 h 0,152 mm 1,5 UV-I 289 W/m 15,2 C 18,7 C 4,3 km/h (1 Bft) 97,90 %
24.05.2018 11:00 19,3 C 20,6 C 78 % 1016,6 hPa 0,0 l/m 3,4 km/h (1 Bft) S-SO 0,00 h 0,178 mm 1,7 UV-I 309 W/m 15,5 C 19,3 C 5,4 km/h (1 Bft) 98,54 %
24.05.2018 12:00 20,4 C 20,6 C 76 % 1016,1 hPa 0,0 l/m 5,4 km/h (1 Bft) O 0,48 h 0,178 mm 2,8 UV-I 484 W/m 16,0 C 20,3 C 8,1 km/h (2 Bft) 98,15 %
24.05.2018 13:00 21,2 C 20,6 C 71 % 1015,5 hPa 0,0 l/m 5,2 km/h (1 Bft) O-SO 0,32 h 0,304 mm 2,7 UV-I 446 W/m 15,6 C 21,1 C 8,3 km/h (2 Bft) 97,57 %
24.05.2018 14:00 21,4 C 20,6 C 70 % 1015,1 hPa 0,0 l/m 3,3 km/h (1 Bft) O 0,13 h 0,280 mm 1,8 UV-I 371 W/m 15,6 C 21,4 C 5,1 km/h (1 Bft) 96,54 %
24.05.2018 15:00 22,8 C 21,1 C 67 % 1014,5 hPa 0,0 l/m 7,1 km/h (2 Bft) O 0,40 h 0,228 mm 2,3 UV-I 460 W/m 16,3 C 22,4 C 10,5 km/h (2 Bft) 99,33 %
24.05.2018 16:00 21,4 C 21,1 C 69 % 1014,7 hPa 0,0 l/m 12,2 km/h (2 Bft) W 0,00 h 0,305 mm 0,9 UV-I 147 W/m 15,4 C 19,6 C 17,4 km/h (3 Bft) 98,00 %
24.05.2018 17:00 17,0 C 21,1 C 88 % 1015,4 hPa 5,0 l/m 4,7 km/h (1 Bft) SO 0,00 h 0,153 mm 0,0 UV-I 38 W/m 14,8 C 16,7 C 7,4 km/h (2 Bft) 97,71 %
24.05.2018 18:00 16,0 C 21,0 C 92 % 1015,3 hPa 2,2 l/m 5,1 km/h (1 Bft) N-NO 0,00 h 0,025 mm 0,0 UV-I 19 W/m 14,8 C 15,8 C 7,0 km/h (2 Bft) 95,91 %
24.05.2018 19:00 16,1 C 20,6 C 95 % 1015,7 hPa 0,4 l/m 3,9 km/h (1 Bft) SW 0,00 h 0,025 mm 0,0 UV-I 24 W/m 15,2 C 16,0 C 5,6 km/h (1 Bft) 99,23 %
24.05.2018 20:00 16,1 C 20,6 C 96 % 1015,9 hPa 0,0 l/m 3,2 km/h (1 Bft) SW 0,15 h 0,026 mm 0,0 UV-I 14 W/m 15,4 C 16,1 C 4,9 km/h (1 Bft) 97,78 %
24.05.2018 21:00 15,6 C 20,6 C 96 % 1016,1 hPa 0,0 l/m 0,5 km/h (0 Bft) SW 0,00 h 0,000 mm 0,0 UV-I 0 W/m 14,9 C 15,6 C 0,8 km/h (0 Bft) 97,65 %
24.05.2018 22:00 14,9 C 20,6 C 97 % 1016,2 hPa 0,0 l/m 0,7 km/h (0 Bft) SW 0,00 h 0,000 mm 0,0 UV-I 0 W/m 14,3 C 14,9 C 1,1 km/h (1 Bft) 97,14 %
24.05.2018 23:00 14,9 C 20,6 C 97 % 1016,3 hPa 0,0 l/m 0,7 km/h (0 Bft) SW 0,00 h 0,000 mm 0,0 UV-I 0 W/m 14,5 C 14,9 C 1,3 km/h (1 Bft) 99,10 %
25.05.2018 00:00 14,9 C 20,6 C 97 % 1016,5 hPa 0,0 l/m 1,9 km/h (1 Bft) SW 0,00 h 0,000 mm 0,0 UV-I 0 W/m 14,4 C 14,9 C 3,4 km/h (1 Bft) 97,75 %
25.05.2018 01:00 15,0 C 20,6 C 97 % 1016,5 hPa 0,4 l/m 3,1 km/h (1 Bft) SW 0,00 h 0,000 mm 0,0 UV-I 0 W/m 14,5 C 15,0 C 4,8 km/h (1 Bft) 97,61 %
25.05.2018 02:00 14,6 C 20,2 C 97 % 1016,5 hPa 0,0 l/m 3,1 km/h (1 Bft) SW 0,00 h 0,000 mm 0,0 UV-I 0 W/m 14,1 C 14,6 C 4,7 km/h (1 Bft) 97,82 %
25.05.2018 03:00 14,2 C 20,0 C 97 % 1016,6 hPa 0,0 l/m 4,1 km/h (1 Bft) SW 0,00 h 0,000 mm 0,0 UV-I 0 W/m 13,7 C 14,1 C 6,0 km/h (2 Bft) 99,52 %
25.05.2018 04:00 13,8 C 20,0 C 97 % 1016,5 hPa 0,0 l/m 4,0 km/h (1 Bft) S-SW 0,00 h 0,000 mm 0,0 UV-I 0 W/m 13,5 C 13,7 C 5,9 km/h (2 Bft) 97,79 %
25.05.2018 05:00 14,2 C 20,0 C 98 % 1016,6 hPa 0,0 l/m 1,3 km/h (1 Bft) SW 0,05 h 0,000 mm 0,0 UV-I 13 W/m 13,8 C 14,2 C 2,3 km/h (1 Bft) 97,19 %
25.05.2018 06:00 14,8 C 20,0 C 97 % 1016,8 hPa 0,0 l/m 2,0 km/h (1 Bft) SW 0,00 h 0,000 mm 0,0 UV-I 44 W/m 14,3 C 14,8 C 3,2 km/h (1 Bft) 97,82 %
25.05.2018 07:00 15,5 C 20,0 C 97 % 1016,8 hPa 0,0 l/m 3,6 km/h (1 Bft) SW 0,00 h 0,025 mm 0,0 UV-I 84 W/m 14,9 C 15,4 C 5,4 km/h (1 Bft) 99,38 %
25.05.2018 08:00 16,0 C 20,0 C 95 % 1017,1 hPa 0,0 l/m 2,7 km/h (1 Bft) W-SW 0,00 h 0,051 mm 0,3 UV-I 85 W/m 15,2 C 16,0 C 4,4 km/h (1 Bft) 96,39 %
25.05.2018 09:00 16,4 C 20,0 C 93 % 1017,2 hPa 0,0 l/m 0,6 km/h (0 Bft) N-NW 0,00 h 0,051 mm 1,0 UV-I 178 W/m 15,3 C 16,4 C 1,3 km/h (1 Bft) 96,77 %
25.05.2018 10:00 17,5 C 20,0 C 90 % 1017,2 hPa 0,0 l/m 1,8 km/h (1 Bft) NO 0,02 h 0,102 mm 1,7 UV-I 321 W/m 15,8 C 17,5 C 2,9 km/h (1 Bft) 98,07 %
25.05.2018 11:00 18,8 C 20,1 C 85 % 1017,0 hPa 0,0 l/m 2,5 km/h (1 Bft) O-NO 0,68 h 0,177 mm 3,8 UV-I 679 W/m 16,2 C 18,8 C 4,1 km/h (1 Bft) 99,43 %
25.05.2018 12:00 20,2 C 20,6 C 77 % 1016,5 hPa 0,0 l/m 4,0 km/h (1 Bft) SO 0,68 h 0,381 mm 4,3 UV-I 654 W/m 16,2 C 20,2 C 5,9 km/h (2 Bft) 98,12 %
25.05.2018 13:00 21,4 C 20,8 C 74 % 1016,2 hPa 0,0 l/m 4,8 km/h (1 Bft) O-NO 0,37 h 0,381 mm 3,6 UV-I 534 W/m 16,5 C 21,3 C 7,5 km/h (2 Bft) 98,75 %
25.05.2018 14:00 18,9 C 21,1 C 79 % 1016,4 hPa 0,0 l/m 16,7 km/h (3 Bft) NO 0,00 h 0,356 mm 1,0 UV-I 185 W/m 15,2 C 15,6 C 22,5 km/h (4 Bft) 95,48 %
25.05.2018 15:00 16,6 C 20,7 C 90 % 1017,4 hPa 1,4 l/m 7,3 km/h (2 Bft) NO 0,00 h 0,152 mm 0,5 UV-I 35 W/m 14,8 C 15,6 C 10,4 km/h (2 Bft) 98,66 %
25.05.2018 16:00 15,8 C 20,6 C 95 % 1017,5 hPa 3,8 l/m 3,1 km/h (1 Bft) O 0,00 h 0,026 mm 0,0 UV-I 45 W/m 14,9 C 15,7 C 4,6 km/h (1 Bft) 97,70 %
25.05.2018 17:00 16,1 C 20,6 C 95 % 1017,4 hPa 0,0 l/m 1,4 km/h (1 Bft) S-SW 0,00 h 0,025 mm 0,0 UV-I 97 W/m 15,3 C 16,1 C 2,8 km/h (1 Bft) 97,58 %
25.05.2018 18:00 16,5 C 20,6 C 94 % 1017,5 hPa 0,0 l/m 0,2 km/h (0 Bft) S 0,00 h 0,051 mm 0,0 UV-I 97 W/m 15,5 C 16,5 C 0,6 km/h (0 Bft) 95,89 %
25.05.2018 19:00 16,4 C 20,6 C 94 % 1017,8 hPa 0,0 l/m 3,7 km/h (1 Bft) NO 0,12 h 0,051 mm 0,0 UV-I 63 W/m 15,4 C 16,4 C 4,7 km/h (1 Bft) 99,20 %
25.05.2018 20:00 15,7 C 20,6 C 95 % 1017,8 hPa 0,0 l/m 4,3 km/h (1 Bft) NO 0,48 h 0,025 mm 0,0 UV-I 26 W/m 14,9 C 15,7 C 5,7 km/h (1 Bft) 97,78 %
25.05.2018 21:00 14,7 C 20,6 C 96 % 1018,3 hPa 0,0 l/m 0,9 km/h (0 Bft) NO 0,00 h 0,026 mm 0,0 UV-I 3 W/m 14,2 C 14,7 C 1,6 km/h (1 Bft) 98,07 %
25.05.2018 22:00 13,8 C 20,6 C 97 % 1018,5 hPa 0,0 l/m 0,8 km/h (0 Bft) SO 0,00 h 0,000 mm 0,0 UV-I 0 W/m 13,3 C 13,8 C 1,6 km/h (1 Bft) 96,19 %
25.05.2018 23:00 13,0 C 20,3 C 97 % 1018,7 hPa 0,0 l/m 1,0 km/h (0 Bft) S-SW 0,00 h 0,000 mm 0,0 UV-I 0 W/m 12,6 C 13,0 C 1,6 km/h (1 Bft) 99,38 %
26.05.2018 00:00 12,9 C 20,0 C 98 % 1019,0 hPa 0,0 l/m 1,4 km/h (1 Bft) SW 0,00 h 0,000 mm 0,0 UV-I 0 W/m 12,6 C 12,9 C 2,2 km/h (1 Bft) 97,69 %
26.05.2018 01:00 13,5 C 20,0 C 98 % 1018,8 hPa 0,2 l/m 0,1 km/h (0 Bft) SW 0,00 h 0,000 mm 0,0 UV-I 0 W/m 13,1 C 13,5 C 0,2 km/h (0 Bft) 97,33 %
26.05.2018 02:00 13,7 C 20,0 C 98 % 1018,9 hPa 0,0 l/m 0,9 km/h (0 Bft) SO 0,00 h 0,000 mm 0,0 UV-I 0 W/m 13,4 C 13,7 C 1,5 km/h (1 Bft) 96,40 %
26.05.2018 03:00 13,2 C 20,0 C 98 % 1019,0 hPa 0,0 l/m 0,7 km/h (0 Bft) S-SO 0,00 h 0,000 mm 0,0 UV-I 0 W/m 12,9 C 13,2 C 1,5 km/h (1 Bft) 98,97 %
26.05.2018 04:00 13,3 C 20,0 C 98 % 1019,0 hPa 0,0 l/m 0,8 km/h (0 Bft) S-SO 0,00 h 0,000 mm 0,0 UV-I 0 W/m 13,0 C 13,3 C 1,9 km/h (1 Bft) 97,94 %
26.05.2018 05:00 13,3 C 20,0 C 98 % 1019,0 hPa 0,0 l/m 3,5 km/h (1 Bft) O 0,02 h 0,000 mm 0,0 UV-I 13 W/m 13,0 C 13,3 C 5,3 km/h (1 Bft) 97,05 %
26.05.2018 06:00 13,4 C 20,0 C 98 % 1019,4 hPa 0,0 l/m 1,3 km/h (1 Bft) O 0,00 h 0,000 mm 0,0 UV-I 39 W/m 13,1 C 13,4 C 2,6 km/h (1 Bft) 97,85 %
26.05.2018 07:00 13,8 C 20,0 C 98 % 1019,7 hPa 0,0 l/m 4,6 km/h (1 Bft) O 0,00 h 0,025 mm 0,0 UV-I 74 W/m 13,6 C 13,8 C 6,7 km/h (2 Bft) 98,52 %
26.05.2018 08:00 14,3 C 19,7 C 99 % 1020,1 hPa 0,0 l/m 5,1 km/h (1 Bft) O 0,00 h 0,051 mm 0,6 UV-I 146 W/m 14,1 C 14,2 C 7,5 km/h (2 Bft) 98,37 %
26.05.2018 09:00 15,2 C 20,0 C 98 % 1020,1 hPa 0,0 l/m 4,9 km/h (1 Bft) O-NO 0,10 h 0,076 mm 1,0 UV-I 288 W/m 14,9 C 15,0 C 7,3 km/h (2 Bft) 97,10 %
26.05.2018 10:00 17,4 C 20,0 C 92 % 1020,1 hPa 0,0 l/m 6,1 km/h (2 Bft) O-NO 0,45 h 0,153 mm 2,2 UV-I 490 W/m 16,1 C 17,1 C 9,4 km/h (2 Bft) 96,85 %
26.05.2018 11:00 19,6 C 20,1 C 83 % 1019,9 hPa 0,0 l/m 9,3 km/h (2 Bft) O-NO 1,00 h 0,305 mm 3,2 UV-I 742 W/m 16,6 C 18,5 C 13,6 km/h (3 Bft) 98,84 %
26.05.2018 12:00 21,5 C 20,6 C 75 % 1019,6 hPa 0,0 l/m 10,1 km/h (2 Bft) O-NO 1,00 h 0,431 mm 3,8 UV-I 785 W/m 16,9 C 20,4 C 14,4 km/h (3 Bft) 98,17 %
26.05.2018 13:00 23,1 C 21,1 C 68 % 1019,4 hPa 0,0 l/m 9,2 km/h (2 Bft) O-NO 1,00 h 0,483 mm 3,8 UV-I 799 W/m 16,8 C 22,3 C 13,2 km/h (3 Bft) 98,30 %
26.05.2018 14:00 24,5 C 21,4 C 58 % 1019,0 hPa 0,0 l/m 9,2 km/h (2 Bft) O-NO 1,00 h 0,533 mm 3,4 UV-I 753 W/m 15,5 C 23,8 C 13,3 km/h (3 Bft) 96,23 %
26.05.2018 15:00 25,3 C 21,8 C 52 % 1018,6 hPa 0,0 l/m 8,3 km/h (2 Bft) O-NO 1,00 h 0,534 mm 2,6 UV-I 665 W/m 14,8 C 24,8 C 11,9 km/h (2 Bft) 97,95 %
26.05.2018 16:00 25,6 C 22,2 C 51 % 1018,2 hPa 0,0 l/m 8,0 km/h (2 Bft) O-NO 1,00 h 0,482 mm 1,7 UV-I 508 W/m 14,7 C 25,1 C 11,5 km/h (2 Bft) 98,90 %
26.05.2018 17:00 25,5 C 22,2 C 51 % 1017,9 hPa 0,0 l/m 8,5 km/h (2 Bft) O-NO 0,88 h 0,381 mm 1,0 UV-I 369 W/m 14,6 C 25,0 C 12,1 km/h (2 Bft) 97,72 %
26.05.2018 18:00 24,1 C 22,2 C 57 % 1017,8 hPa 0,0 l/m 7,5 km/h (2 Bft) O 0,30 h 0,305 mm 0,5 UV-I 176 W/m 14,9 C 23,7 C 10,8 km/h (2 Bft) 96,57 %
26.05.2018 19:00 23,1 C 22,2 C 64 % 1017,8 hPa 0,0 l/m 7,3 km/h (2 Bft) O 0,35 h 0,178 mm 0,0 UV-I 91 W/m 15,8 C 22,6 C 10,8 km/h (2 Bft) 97,62 %
26.05.2018 20:00 21,7 C 22,2 C 69 % 1017,8 hPa 0,0 l/m 4,3 km/h (1 Bft) O 0,62 h 0,102 mm 0,0 UV-I 36 W/m 15,7 C 21,7 C 6,6 km/h (2 Bft) 99,41 %
26.05.2018 21:00 20,3 C 22,2 C 72 % 1018,4 hPa 0,0 l/m 4,3 km/h (1 Bft) O-SO 0,00 h 0,050 mm 0,0 UV-I 5 W/m 15,2 C 20,3 C 6,8 km/h (2 Bft) 98,01 %
26.05.2018 22:00 19,4 C 22,1 C 75 % 1018,8 hPa 0,0 l/m 3,9 km/h (1 Bft) O 0,00 h 0,026 mm 0,0 UV-I 0 W/m 14,8 C 19,4 C 5,8 km/h (2 Bft) 96,56 %
26.05.2018 23:00 18,4 C 21,7 C 79 % 1019,0 hPa 0,0 l/m 2,6 km/h (1 Bft) O-SO 0,00 h 0,025 mm 0,0 UV-I 0 W/m 14,7 C 18,4 C 3,6 km/h (1 Bft) 97,53 %
27.05.2018 00:00 16,9 C 21,7 C 85 % 1019,0 hPa 0,0 l/m 1,2 km/h (1 Bft) O 0,00 h 0,000 mm 0,0 UV-I 0 W/m 14,3 C 16,9 C 1,9 km/h (1 Bft) 99,17 %
27.05.2018 01:00 15,7 C 21,7 C 88 % 1018,9 hPa 0,0 l/m 1,8 km/h (1 Bft) S 0,00 h 0,000 mm 0,0 UV-I 0 W/m 13,7 C 15,7 C 2,6 km/h (1 Bft) 96,73 %
27.05.2018 02:00 14,4 C 21,7 C 92 % 1018,3 hPa 0,0 l/m 2,2 km/h (1 Bft) S 0,00 h 0,000 mm 0,0 UV-I 0 W/m 13,0 C 14,4 C 3,1 km/h (1 Bft) 97,30 %
27.05.2018 03:00 13,9 C 21,3 C 93 % 1018,1 hPa 0,0 l/m 3,4 km/h (1 Bft) S-SW 0,00 h 0,000 mm 0,0 UV-I 0 W/m 12,8 C 13,9 C 4,5 km/h (1 Bft) 97,83 %
27.05.2018 04:00 13,5 C 21,1 C 94 % 1017,6 hPa 0,0 l/m 1,3 km/h (1 Bft) S-SW 0,00 h 0,000 mm 0,0 UV-I 5 W/m 12,5 C 13,5 C 2,1 km/h (1 Bft) 98,53 %
27.05.2018 05:00 13,0 C 21,1 C 95 % 1017,5 hPa 0,0 l/m 1,1 km/h (1 Bft) S-SW 0,60 h 0,000 mm 0,0 UV-I 31 W/m 12,2 C 13,0 C 2,0 km/h (1 Bft) 96,28 %
27.05.2018 06:00 14,2 C 21,1 C 93 % 1017,6 hPa 0,0 l/m 0,5 km/h (0 Bft) S-SW 0,98 h 0,025 mm 0,0 UV-I 150 W/m 13,2 C 14,2 C 1,0 km/h (0 Bft) 97,90 %
27.05.2018 07:00 16,9 C 21,1 C 89 % 1017,8 hPa 0,0 l/m 4,3 km/h (1 Bft) O 0,92 h 0,077 mm 0,5 UV-I 258 W/m 15,0 C 16,9 C 5,8 km/h (2 Bft) 98,60 %
27.05.2018 08:00 19,0 C 21,1 C 83 % 1018,1 hPa 0,0 l/m 6,2 km/h (2 Bft) O-NO 1,00 h 0,152 mm 0,9 UV-I 405 W/m 16,0 C 18,7 C 8,9 km/h (2 Bft) 96,02 %
27.05.2018 09:00 20,8 C 21,6 C 76 % 1018,0 hPa 0,0 l/m 10,1 km/h (2 Bft) O-NO 1,00 h 0,254 mm 1,6 UV-I 542 W/m 16,5 C 19,5 C 14,3 km/h (3 Bft) 98,35 %
27.05.2018 10:00 22,4 C 21,7 C 72 % 1017,9 hPa 0,0 l/m 9,1 km/h (2 Bft) O 1,00 h 0,356 mm 2,4 UV-I 662 W/m 17,1 C 21,6 C 12,9 km/h (3 Bft) 98,41 %
27.05.2018 11:00 24,0 C 22,0 C 67 % 1017,5 hPa 0,0 l/m 8,7 km/h (2 Bft) O-NO 1,00 h 0,431 mm 3,0 UV-I 733 W/m 17,5 C 23,4 C 12,5 km/h (3 Bft) 98,46 %
27.05.2018 12:00 25,3 C 22,2 C 62 % 1016,9 hPa 0,0 l/m 8,3 km/h (2 Bft) O-NO 1,00 h 0,483 mm 3,2 UV-I 755 W/m 17,3 C 24,8 C 12,5 km/h (3 Bft) 96,46 %
27.05.2018 13:00 25,8 C 22,8 C 55 % 1016,3 hPa 0,0 l/m 7,9 km/h (2 Bft) O 0,52 h 0,508 mm 2,4 UV-I 540 W/m 16,2 C 25,4 C 11,5 km/h (2 Bft) 97,50 %
27.05.2018 14:00 27,2 C 22,8 C 51 % 1015,7 hPa 0,0 l/m 7,2 km/h (2 Bft) O-NO 1,00 h 0,406 mm 3,0 UV-I 799 W/m 16,1 C 27,0 C 10,8 km/h (2 Bft) 98,60 %
27.05.2018 15:00 27,7 C 23,3 C 46 % 1015,4 hPa 0,0 l/m 11,9 km/h (2 Bft) O 1,00 h 0,559 mm 2,1 UV-I 640 W/m 14,9 C 26,9 C 17,0 km/h (3 Bft) 97,05 %
27.05.2018 16:00 26,3 C 23,3 C 54 % 1015,5 hPa 0,0 l/m 16,6 km/h (3 Bft) O 0,47 h 0,508 mm 1,2 UV-I 401 W/m 16,1 C 24,7 C 22,6 km/h (4 Bft) 97,01 %
27.05.2018 17:00 25,0 C 23,3 C 62 % 1015,5 hPa 0,0 l/m 11,6 km/h (2 Bft) O 0,00 h 0,381 mm 0,6 UV-I 220 W/m 17,1 C 23,8 C 16,4 km/h (3 Bft) 98,29 %
27.05.2018 18:00 23,8 C 23,3 C 67 % 1015,5 hPa 0,0 l/m 12,4 km/h (3 Bft) O 0,00 h 0,203 mm 0,0 UV-I 130 W/m 17,4 C 22,4 C 16,7 km/h (3 Bft) 98,14 %
27.05.2018 19:00 22,6 C 23,3 C 71 % 1015,6 hPa 0,0 l/m 8,0 km/h (2 Bft) O-NO 0,00 h 0,153 mm 0,0 UV-I 71 W/m 17,1 C 22,0 C 11,5 km/h (2 Bft) 96,77 %
27.05.2018 20:00 21,6 C 23,3 C 71 % 1015,6 hPa 0,0 l/m 7,7 km/h (2 Bft) O-SO 0,03 h 0,076 mm 0,0 UV-I 16 W/m 16,0 C 21,1 C 11,4 km/h (2 Bft) 96,72 %
27.05.2018 21:00 20,4 C 23,2 C 74 % 1016,0 hPa 0,0 l/m 6,7 km/h (2 Bft) O 0,00 h 0,051 mm 0,0 UV-I 0 W/m 15,6 C 20,1 C 9,6 km/h (2 Bft) 97,91 %
27.05.2018 22:00 19,2 C 22,8 C 79 % 1016,0 hPa 0,0 l/m 4,2 km/h (1 Bft) O-NO 0,00 h 0,025 mm 0,0 UV-I 0 W/m 15,5 C 19,2 C 5,8 km/h (2 Bft) 98,65 %
27.05.2018 23:00 18,5 C 22,8 C 83 % 1016,1 hPa 0,0 l/m 3,7 km/h (1 Bft) O 0,00 h 0,026 mm 0,0 UV-I 0 W/m 15,5 C 18,5 C 5,1 km/h (1 Bft) 96,73 %
Min-Datum _ 22.05.18 21.05.18 27.05.18 22.05.18 - 22.05.18 - - - - - 22.05.18 21.05.18 22.05.18 27.05.18
_ Min-Zeit 05:15 05:07 15:13 15:55 - 02:41 - - - - - 05:15 05:45 02:41 16:16
Minimum _ 9,4 C 16,7 C 35 % 1009,1 hPa - 0,0 km/h (0 Bft) - - - - - 8,0 C 5,7 C 0,0 km/h (0 Bft) 78,26 %
Max-Datum _ 27.05.18 27.05.18 26.05.18 26.05.18 24.05.18 22.05.18 - 21.05.18 21.05.18 23.05.18 25.05.18 27.05.18 27.05.18 22.05.18 21.05.18
_ Max-Zeit 15:06 14:53 07:02 09:18 17:04 16:29 - 07:23 14:02 13:22 12:13 12:40 15:13 16:29 00:00
Maximum _ 28,2 C 23,3 C 99 % 1020,3 hPa 5,0 l/m 39,6 km/h
SO (6 Bft)
- 0,03 h 0,686 mm 5,5 UV-I 1123 W/m 19,0 C 27,9 C 54,7 km/h
S-SO (7 Bft)
100,00 %
Durchschnitt _ 17,8 C 20,1 C 78 % 1015,2 hPa #13,4 l/m 6,7 km/h (2 Bft) O #59:27 h #28,449 mm 2,3 UV-I 340 W/m 13,4 C 17,1 C 9,4 km/h (2 Bft) 97,87 %